CASTLE10 EGLW-EGFC

Flight info

Callsign CASTLE10
Flight time 0h 54m
Altitude 2000
Route H10
Aircraft A139/L-SBGY/ACEB2

Departure

Time 2026-04-26 16:14
Airport London Heliport (EGLW)

Arrival

Time 2026-04-26 17:09
Airport Cardiff Heliport (EGFC)
Time Latitude Longitude Altitude Speed Heading
2026-04-26 16:07 51.46981 -0.17885 68 ft 0 kts 98°
2026-04-26 16:08 51.46978 -0.17894 68 ft 0 kts 291°
2026-04-26 16:08 51.46985 -0.17930 68 ft 5 kts 287°
2026-04-26 16:09 51.46992 -0.17952 68 ft 1 kts 46°
2026-04-26 16:09 51.46993 -0.17951 68 ft 0 kts 26°
2026-04-26 16:09 51.46998 -0.17947 93 ft 4 kts 17°
2026-04-26 16:10 51.47045 -0.18048 180 ft 20 kts 232°
2026-04-26 16:10 51.47000 -0.18146 249 ft 21 kts 216°
2026-04-26 16:10 51.46893 -0.18185 329 ft 24 kts 220°
2026-04-26 16:10 51.46791 -0.18214 397 ft 17 kts 235°
2026-04-26 16:11 51.46698 -0.18341 386 ft 25 kts 264°
2026-04-26 16:11 51.46490 -0.18466 487 ft 25 kts 268°
2026-04-26 16:11 51.46465 -0.18547 485 ft 7 kts 279°
2026-04-26 16:11 51.46438 -0.18644 546 ft 11 kts 265°
2026-04-26 16:12 51.46466 -0.18799 619 ft 19 kts 265°
2026-04-26 16:12 51.46423 -0.19058 727 ft 31 kts 263°
2026-04-26 16:12 51.46408 -0.19879 817 ft 41 kts 277°
2026-04-26 16:13 51.46458 -0.20305 777 ft 39 kts 289°
2026-04-26 16:13 51.46519 -0.20705 757 ft 35 kts 293°
2026-04-26 16:13 51.46580 -0.20998 673 ft 21 kts 295°
2026-04-26 16:13 51.46599 -0.21114 533 ft 8 kts 318°
2026-04-26 16:14 51.46589 -0.21193 495 ft 9 kts 318°
2026-04-26 16:14 51.46598 -0.21284 499 ft 15 kts 324°
2026-04-26 16:14 51.46931 -0.21835 912 ft 66 kts 323°
2026-04-26 16:15 51.47387 -0.22199 1098 ft 73 kts 349°
2026-04-26 16:15 51.47826 -0.22556 1028 ft 69 kts 349°
2026-04-26 16:15 51.48251 -0.22818 1001 ft 64 kts 349°
2026-04-26 16:16 51.48963 -0.23800 1021 ft 78 kts 277°
2026-04-26 16:16 51.48776 -0.24589 1030 ft 78 kts 227°
2026-04-26 16:16 51.48341 -0.25080 1035 ft 76 kts 199°
2026-04-26 16:16 51.47841 -0.25254 1043 ft 73 kts 182°
2026-04-26 16:17 51.47370 -0.25574 1022 ft 79 kts 229°
2026-04-26 16:17 51.47234 -0.26375 1023 ft 77 kts 291°
2026-04-26 16:17 51.47466 -0.27129 1017 ft 75 kts 322°
2026-04-26 16:17 51.47914 -0.27483 1018 ft 73 kts 343°
2026-04-26 16:18 51.48375 -0.27802 1031 ft 74 kts 329°
2026-04-26 16:18 51.48980 -0.29146 992 ft 78 kts 342°
2026-04-26 16:19 51.50008 -0.29202 1338 ft 86 kts
2026-04-26 16:19 51.50615 -0.29146 1571 ft 89 kts
2026-04-26 16:19 51.51865 -0.29098 1555 ft 91 kts 359°
2026-04-26 16:20 51.52486 -0.29306 1537 ft 93 kts 343°
2026-04-26 16:20 51.53186 -0.30919 1525 ft 98 kts 270°
2026-04-26 16:20 51.53223 -0.32011 1525 ft 98 kts 283°
2026-04-26 16:21 51.53364 -0.33083 1526 ft 99 kts 283°
2026-04-26 16:21 51.53514 -0.34154 1529 ft 99 kts 289°
2026-04-26 16:21 51.53694 -0.35210 1532 ft 98 kts 289°
2026-04-26 16:21 51.53891 -0.36262 1533 ft 98 kts 289°
2026-04-26 16:22 51.54080 -0.37303 1529 ft 98 kts 289°
2026-04-26 16:22 51.54272 -0.38348 1525 ft 98 kts 289°
2026-04-26 16:22 51.54466 -0.39400 1521 ft 99 kts 289°
2026-04-26 16:22 51.54659 -0.40459 1519 ft 100 kts 289°
2026-04-26 16:23 51.54861 -0.41536 1476 ft 108 kts 289°
2026-04-26 16:23 51.55075 -0.42694 1506 ft 109 kts 289°
2026-04-26 16:23 51.55303 -0.43861 1532 ft 109 kts 289°
2026-04-26 16:23 51.55520 -0.45024 1538 ft 109 kts 289°
2026-04-26 16:24 51.55735 -0.46186 1531 ft 109 kts 284°
2026-04-26 16:24 51.55639 -0.47362 1522 ft 108 kts 238°
2026-04-26 16:24 51.55193 -0.48328 1517 ft 108 kts 230°
2026-04-26 16:24 51.54697 -0.49225 1515 ft 108 kts 219°
2026-04-26 16:25 51.54121 -0.49982 1520 ft 107 kts 217°
2026-04-26 16:25 51.53546 -0.50755 1521 ft 108 kts 224°
2026-04-26 16:25 51.53340 -0.51878 1509 ft 109 kts 283°
2026-04-26 16:25 51.53593 -0.53011 1518 ft 108 kts 295°
2026-04-26 16:26 51.53848 -0.54123 1525 ft 109 kts 288°
2026-04-26 16:26 51.54062 -0.55284 1524 ft 109 kts 285°
2026-04-26 16:26 51.54249 -0.56462 1525 ft 109 kts 285°
2026-04-26 16:26 51.54422 -0.57639 1527 ft 108 kts 285°
2026-04-26 16:27 51.54603 -0.58821 1517 ft 109 kts 285°
2026-04-26 16:27 51.54790 -0.59994 1518 ft 109 kts 285°
2026-04-26 16:27 51.54974 -0.61169 1521 ft 109 kts 285°
2026-04-26 16:27 51.55156 -0.62340 1517 ft 109 kts 285°
2026-04-26 16:28 51.55343 -0.63504 1514 ft 109 kts 285°
2026-04-26 16:28 51.55524 -0.64682 1516 ft 109 kts 285°
2026-04-26 16:28 51.55638 -0.65886 1512 ft 109 kts 271°
2026-04-26 16:28 51.55638 -0.67086 1519 ft 109 kts 270°
2026-04-26 16:29 51.55632 -0.68301 1522 ft 109 kts 269°
2026-04-26 16:29 51.55622 -0.69511 1515 ft 109 kts 269°
2026-04-26 16:29 51.55610 -0.70724 1516 ft 109 kts 269°
2026-04-26 16:29 51.55596 -0.71938 1516 ft 109 kts 269°
2026-04-26 16:30 51.55582 -0.73135 1517 ft 110 kts 269°
2026-04-26 16:30 51.55566 -0.74359 1523 ft 109 kts 269°
2026-04-26 16:30 51.55552 -0.75573 1530 ft 109 kts 269°
2026-04-26 16:30 51.55531 -0.76867 1548 ft 127 kts 274°
2026-04-26 16:31 51.55525 -0.78405 1657 ft 148 kts 275°
2026-04-26 16:31 51.55518 -0.80074 1948 ft 150 kts 265°
2026-04-26 16:31 51.55487 -0.81733 1959 ft 149 kts 267°
2026-04-26 16:31 51.55456 -0.83401 1926 ft 150 kts 268°
2026-04-26 16:32 51.55428 -0.85081 1912 ft 150 kts 268°
2026-04-26 16:32 51.55411 -0.86191 1906 ft 150 kts 268°
2026-04-26 16:32 51.55377 -0.88423 1909 ft 150 kts 269°
2026-04-26 16:32 51.55352 -0.90091 1902 ft 150 kts 269°
2026-04-26 16:33 51.55328 -0.91747 1893 ft 151 kts 269°
2026-04-26 16:33 51.55304 -0.93422 1893 ft 151 kts 269°
2026-04-26 16:33 51.55280 -0.95101 1897 ft 151 kts 269°
2026-04-26 16:33 51.55255 -0.96797 1904 ft 151 kts 269°
2026-04-26 16:34 51.55231 -0.98474 1902 ft 151 kts 269°
2026-04-26 16:34 51.55206 -1.00148 1908 ft 150 kts 268°
2026-04-26 16:34 51.55181 -1.01817 1914 ft 150 kts 268°
2026-04-26 16:34 51.55156 -1.03482 1915 ft 149 kts 268°
2026-04-26 16:35 51.55129 -1.05138 1905 ft 150 kts 268°
2026-04-26 16:35 51.55103 -1.06800 1896 ft 150 kts 268°
2026-04-26 16:35 51.55075 -1.08481 1897 ft 150 kts 268°
2026-04-26 16:35 51.55048 -1.10159 1894 ft 151 kts 268°
2026-04-26 16:36 51.55022 -1.11842 1900 ft 152 kts 269°
2026-04-26 16:36 51.54995 -1.13517 1915 ft 151 kts 268°
2026-04-26 16:36 51.54967 -1.15195 1916 ft 151 kts 268°
2026-04-26 16:36 51.54939 -1.16875 1913 ft 151 kts 268°
2026-04-26 16:37 51.54911 -1.18547 1914 ft 151 kts 269°
2026-04-26 16:37 51.54885 -1.20228 1915 ft 150 kts 268°
2026-04-26 16:37 51.54857 -1.21890 1909 ft 150 kts 268°
2026-04-26 16:37 51.54829 -1.23552 1914 ft 149 kts 268°
2026-04-26 16:38 51.54801 -1.25204 1904 ft 149 kts 268°
2026-04-26 16:38 51.54771 -1.26858 1902 ft 149 kts 268°
2026-04-26 16:38 51.54742 -1.28514 1905 ft 149 kts 268°
2026-04-26 16:38 51.54713 -1.30171 1904 ft 149 kts 268°
2026-04-26 16:39 51.54682 -1.31832 1903 ft 149 kts 268°
2026-04-26 16:39 51.54652 -1.33497 1897 ft 150 kts 268°
2026-04-26 16:39 51.54622 -1.35174 1901 ft 151 kts 268°
2026-04-26 16:39 51.54590 -1.36851 1906 ft 151 kts 268°
2026-04-26 16:40 51.54561 -1.38526 1915 ft 150 kts 268°
2026-04-26 16:40 51.54531 -1.40197 1912 ft 150 kts 268°
2026-04-26 16:40 51.54499 -1.41869 1904 ft 150 kts 268°
2026-04-26 16:40 51.54469 -1.43545 1908 ft 150 kts 268°
2026-04-26 16:41 51.54437 -1.45191 1909 ft 149 kts 267°
2026-04-26 16:41 51.54406 -1.46846 1915 ft 148 kts 267°
2026-04-26 16:41 51.54373 -1.48503 1901 ft 149 kts 267°
2026-04-26 16:41 51.54342 -1.50164 1908 ft 149 kts 267°
2026-04-26 16:42 51.54309 -1.51825 1907 ft 150 kts 267°
2026-04-26 16:42 51.54277 -1.53486 1914 ft 149 kts 267°
2026-04-26 16:42 51.54243 -1.55159 1910 ft 150 kts 267°
2026-04-26 16:42 51.54209 -1.56826 1907 ft 150 kts 268°
2026-04-26 16:43 51.54175 -1.58482 1910 ft 151 kts 268°
2026-04-26 16:43 51.54142 -1.60151 1915 ft 150 kts 268°
2026-04-26 16:43 51.54108 -1.61823 1917 ft 150 kts 268°
2026-04-26 16:43 51.54075 -1.63489 1920 ft 150 kts 268°
2026-04-26 16:44 51.54042 -1.65155 1914 ft 150 kts 266°
2026-04-26 16:44 51.54007 -1.66809 1907 ft 150 kts 266°
2026-04-26 16:44 51.53972 -1.68470 1910 ft 149 kts 266°
2026-04-26 16:44 51.53937 -1.70130 1915 ft 149 kts 266°
2026-04-26 16:45 51.53903 -1.71773 1915 ft 148 kts 266°
2026-04-26 16:45 51.53867 -1.73417 1917 ft 148 kts 266°
2026-04-26 16:45 51.53832 -1.75057 1912 ft 148 kts 266°
2026-04-26 16:45 51.53796 -1.76701 1913 ft 148 kts 266°
2026-04-26 16:46 51.53759 -1.78361 1910 ft 149 kts 266°
2026-04-26 16:46 51.53723 -1.80018 1911 ft 149 kts 266°
2026-04-26 16:46 51.53686 -1.81681 1920 ft 149 kts 266°
2026-04-26 16:46 51.53648 -1.83344 1922 ft 150 kts 266°
2026-04-26 16:47 51.53612 -1.85003 1927 ft 150 kts 266°
2026-04-26 16:47 51.53575 -1.86666 1928 ft 150 kts 266°
2026-04-26 16:47 51.53538 -1.88333 1925 ft 150 kts 266°
2026-04-26 16:47 51.53500 -1.90007 1925 ft 150 kts 266°
2026-04-26 16:48 51.53463 -1.91667 1932 ft 149 kts 266°
2026-04-26 16:48 51.53426 -1.93309 1942 ft 147 kts 266°
2026-04-26 16:48 51.53387 -1.94945 1924 ft 147 kts 266°
2026-04-26 16:48 51.53348 -1.96581 1915 ft 147 kts 266°
2026-04-26 16:49 51.53310 -1.98198 1905 ft 148 kts 266°
2026-04-26 16:49 51.53271 -1.99854 1906 ft 148 kts 266°
2026-04-26 16:49 51.53232 -2.01501 1916 ft 148 kts 266°
2026-04-26 16:49 51.53192 -2.03153 1914 ft 149 kts 266°
2026-04-26 16:50 51.53153 -2.04809 1919 ft 149 kts 266°
2026-04-26 16:50 51.53113 -2.06462 1932 ft 148 kts 266°
2026-04-26 16:50 51.53073 -2.08104 1937 ft 148 kts 266°
2026-04-26 16:50 51.53033 -2.09763 1921 ft 148 kts 266°
2026-04-26 16:51 51.52993 -2.11390 1913 ft 147 kts 266°
2026-04-26 16:51 51.52952 -2.13029 1912 ft 147 kts 266°
2026-04-26 16:51 51.52912 -2.14659 1915 ft 146 kts 266°
2026-04-26 16:51 51.52871 -2.16282 1913 ft 146 kts 266°
2026-04-26 16:52 51.52830 -2.17906 1906 ft 146 kts 266°
2026-04-26 16:52 51.52803 -2.18998 1908 ft 146 kts 266°
2026-04-26 16:52 51.52748 -2.21163 1906 ft 146 kts 266°
2026-04-26 16:52 51.52707 -2.22798 1901 ft 148 kts 266°
2026-04-26 16:53 51.52634 -2.24431 1909 ft 148 kts 264°
2026-04-26 16:53 51.52552 -2.26070 1918 ft 148 kts 264°
2026-04-26 16:53 51.52469 -2.27709 1916 ft 148 kts 264°
2026-04-26 16:53 51.52384 -2.29353 1918 ft 148 kts 264°
2026-04-26 16:54 51.52302 -2.30995 1919 ft 148 kts 264°
2026-04-26 16:54 51.52222 -2.32643 1913 ft 148 kts 264°
2026-04-26 16:54 51.52141 -2.34280 1911 ft 148 kts 264°
2026-04-26 16:54 51.52051 -2.35915 1913 ft 147 kts 262°
2026-04-26 16:55 51.51938 -2.37535 1913 ft 147 kts 262°
2026-04-26 16:55 51.51826 -2.39152 1911 ft 147 kts 262°
2026-04-26 16:55 51.51719 -2.40765 1922 ft 145 kts 262°
2026-04-26 16:55 51.51614 -2.42370 1905 ft 145 kts 262°
2026-04-26 16:56 51.51390 -2.45602 1905 ft 146 kts 262°
2026-04-26 16:56 51.51283 -2.47214 1897 ft 147 kts 262°
2026-04-26 16:56 51.51175 -2.48836 1899 ft 147 kts 262°
2026-04-26 16:57 51.51069 -2.50461 1895 ft 148 kts 262°
2026-04-26 16:57 51.50963 -2.52080 1929 ft 144 kts 263°
2026-04-26 16:57 51.50750 -2.55313 1902 ft 145 kts 262°
2026-04-26 16:58 51.50642 -2.56920 1895 ft 146 kts 262°
2026-04-26 16:58 51.50573 -2.57984 1910 ft 145 kts 263°
2026-04-26 16:58 51.50328 -2.61747 1888 ft 147 kts 262°
2026-04-26 16:59 51.50229 -2.63344 1906 ft 145 kts 263°
2026-04-26 16:59 51.50013 -2.66593 1901 ft 146 kts 262°
2026-04-26 17:00 51.49799 -2.69770 1896 ft 144 kts 262°
2026-04-26 17:00 51.49581 -2.72976 1872 ft 147 kts 261°
2026-04-26 17:00 51.49469 -2.74595 1903 ft 145 kts 262°
2026-04-26 17:01 51.49362 -2.76186 1887 ft 146 kts 261°
2026-04-26 17:01 51.49256 -2.77804 1905 ft 144 kts 262°
2026-04-26 17:01 51.49152 -2.79398 1874 ft 146 kts 262°
2026-04-26 17:01 51.49042 -2.81018 1911 ft 144 kts 262°
2026-04-26 17:02 51.48936 -2.82624 1912 ft 143 kts 262°
2026-04-26 17:02 51.48834 -2.84203 1889 ft 143 kts 262°
2026-04-26 17:02 51.48729 -2.85794 1879 ft 144 kts 262°
2026-04-26 17:02 51.48618 -2.87396 1861 ft 147 kts 262°
2026-04-26 17:03 51.48500 -2.89023 1889 ft 146 kts 262°
2026-04-26 17:03 51.48381 -2.90640 1896 ft 147 kts 262°
2026-04-26 17:03 51.48266 -2.92249 1925 ft 145 kts 262°
2026-04-26 17:03 51.48149 -2.93857 1924 ft 145 kts 262°
2026-04-26 17:04 51.48033 -2.95464 1893 ft 147 kts 261°
2026-04-26 17:04 51.47915 -2.97077 1901 ft 147 kts 262°
2026-04-26 17:04 51.47798 -2.98693 1915 ft 146 kts 262°
2026-04-26 17:04 51.47678 -3.00326 1909 ft 147 kts 262°
2026-04-26 17:05 51.47555 -3.01952 1916 ft 147 kts 262°
2026-04-26 17:05 51.47434 -3.03577 1921 ft 147 kts 262°
2026-04-26 17:05 51.47097 -3.05087 1883 ft 142 kts 235°
2026-04-26 17:05 51.46628 -3.06357 1852 ft 125 kts 234°
2026-04-26 17:06 51.46244 -3.07450 1759 ft 105 kts 234°
2026-04-26 17:06 51.45912 -3.08424 1568 ft 93 kts 234°
2026-04-26 17:06 51.45616 -3.09297 1356 ft 87 kts 234°
2026-04-26 17:06 51.45361 -3.10158 1126 ft 88 kts 249°
2026-04-26 17:07 51.45410 -3.11109 991 ft 86 kts 298°
2026-04-26 17:07 51.45766 -3.11789 1003 ft 73 kts 332°
2026-04-26 17:07 51.46210 -3.11868 974 ft 61 kts 20°
2026-04-26 17:07 51.46597 -3.11629 896 ft 61 kts 37°
2026-04-26 17:08 51.46960 -3.11311 746 ft 60 kts 34°
2026-04-26 17:08 51.47348 -3.11465 648 ft 63 kts 302°
2026-04-26 17:08 51.47382 -3.12106 563 ft 58 kts 243°
2026-04-26 17:08 51.47229 -3.12731 524 ft 74 kts 229°
2026-04-26 17:09 51.47222 -3.13511 455 ft 47 kts 206°
2026-04-26 17:09 51.47064 -3.13639 287 ft 45 kts 191°
2026-04-26 17:09 51.46722 -3.13774 99 ft 23 kts 200°
2026-04-26 17:09 51.46669 -3.13813 69 ft 0 kts 195°
2026-04-26 17:10 51.46673 -3.13809 69 ft 2 kts 25°
2026-04-26 17:10 51.46706 -3.13791 70 ft 4 kts 17°
2026-04-26 17:10 51.46746 -3.13774 70 ft 5 kts 23°
2026-04-26 17:11 51.46799 -3.13766 70 ft 5 kts 351°
2026-04-26 17:11 51.46824 -3.13773 69 ft 0 kts 335°